Compton, California
Current Conditions -  °F | °C
As of 5:53 PM on Friday 24 Oct 2014 (Local Time) from KLGB Reporting Station
Clear Clear  
Wind Chill: 78°   Ceiling: Unl
Heat Index: 78°   Visibility: 10mi
Dew Point: 45°   Wind: 6mph
Humidity: 31%   Direction: 160°SSE
Pressure: 29.92"   Gusts: NA
Location:  33.89°N, 118.22°W
Report Text: KLGB 250053Z 16005KT 10SM CLR 26/07 A2992 RMK AO2 SLP130 T02560072
Loading
Personal Weather Stations






























Interactive Weather Map
Tropical Storm Tracking
New forecast layout! Learn more

10-Day Weather Forecast

Advertisements
Track Severe Weather on mobile